createdAt,value
2023-01-31T00:54:33.054Z,4.30
2023-01-31T01:11:33.312Z,5.50
2023-01-31T06:16:29.914Z,8.30
2023-01-31T06:19:29.795Z,8.69
2023-01-31T06:21:29.972Z,12.39
2023-01-31T06:23:29.755Z,9.89
2023-01-31T06:24:29.737Z,8.80
2023-01-31T06:25:29.724Z,9.00
2023-01-31T06:26:29.770Z,9.19
2023-01-31T06:27:29.829Z,10.39
2023-01-31T06:29:29.694Z,12.10
2023-01-31T06:30:29.836Z,8.80
2023-01-31T06:31:29.791Z,9.60
2023-01-31T06:32:29.658Z,8.89
2023-01-31T06:33:43.474Z,8.80
2023-01-31T06:34:30.679Z,7.90
2023-01-31T06:35:29.651Z,8.10
2023-01-31T06:36:29.566Z,8.39
2023-01-31T06:37:29.614Z,9.19
2023-01-31T06:38:29.549Z,9.00
2023-01-31T06:39:29.731Z,9.50
2023-01-31T06:40:35.596Z,8.30
2023-01-31T06:41:29.576Z,8.30
2023-01-31T06:42:29.512Z,8.30
2023-01-31T06:43:29.559Z,8.69
2023-01-31T06:44:29.560Z,9.10
2023-01-31T06:45:29.600Z,8.00
2023-01-31T06:46:29.480Z,8.50
2023-01-31T06:47:29.448Z,8.50
2023-01-31T06:48:29.463Z,9.19
2023-01-31T06:49:29.440Z,9.00
2023-01-31T06:50:29.436Z,8.30
2023-01-31T06:51:29.412Z,8.80
2023-01-31T06:52:29.394Z,9.69
2023-01-31T06:53:29.388Z,10.30
2023-01-31T06:54:29.386Z,11.50
2023-01-31T06:55:29.373Z,9.39
2023-01-31T06:56:29.559Z,9.10
2023-01-31T06:57:29.352Z,8.89
2023-01-31T06:58:29.341Z,9.39
2023-01-31T06:59:29.329Z,9.69
2023-01-31T07:00:29.364Z,9.19
2023-01-31T07:01:29.570Z,9.89
2023-01-31T07:02:29.319Z,11.60
2023-01-31T07:03:29.489Z,7.80
2023-01-31T07:04:29.335Z,9.69
2023-01-31T07:05:29.268Z,9.19
2023-01-31T07:06:29.257Z,9.19
2023-01-31T07:07:29.259Z,8.30
2023-01-31T07:08:29.250Z,10.19
2023-01-31T07:09:29.234Z,10.50
2023-01-31T07:10:29.228Z,8.60
2023-01-31T07:11:29.221Z,9.00
2023-01-31T07:12:29.213Z,9.30
2023-01-31T07:13:29.187Z,9.39
2023-01-31T07:14:29.190Z,9.10
2023-01-31T07:15:29.172Z,8.89
2023-01-31T07:16:29.213Z,9.00
2023-01-31T07:17:35.151Z,7.80
2023-01-31T07:18:29.145Z,9.60
2023-01-31T07:19:29.127Z,10.00
2023-01-31T07:20:29.251Z,8.19
2023-01-31T07:21:29.100Z,8.60
2023-01-31T07:22:29.131Z,7.40
2023-01-31T07:23:29.086Z,7.80
2023-01-31T07:24:29.076Z,7.90
2023-01-31T07:25:29.068Z,8.30
2023-01-31T07:26:29.091Z,7.59
2023-01-31T07:27:29.055Z,7.59
2023-01-31T07:28:29.043Z,8.10
2023-01-31T07:29:29.030Z,7.90
2023-01-31T07:30:29.171Z,8.19
2023-01-31T07:31:29.052Z,8.30
2023-01-31T07:32:29.067Z,10.30
2023-01-31T07:33:28.999Z,8.10
2023-01-31T07:34:28.980Z,8.80
2023-01-31T07:35:28.969Z,7.09
2023-01-31T07:36:28.948Z,8.89
2023-01-31T07:37:28.947Z,6.69
2023-01-31T07:38:28.938Z,8.19
2023-01-31T07:39:28.918Z,7.40
2023-01-31T07:40:28.911Z,8.00
2023-01-31T07:41:28.906Z,9.60
2023-01-31T07:42:28.892Z,9.60
2023-01-31T07:43:28.888Z,6.90
2023-01-31T07:44:28.862Z,8.60
2023-01-31T07:45:35.431Z,9.69
2023-01-31T07:46:34.860Z,9.80
2023-01-31T07:47:34.872Z,10.10
2023-01-31T07:48:28.846Z,8.30
2023-01-31T07:49:31.105Z,7.09
2023-01-31T07:50:29.046Z,7.30
2023-01-31T07:51:28.798Z,9.69
2023-01-31T07:52:28.791Z,10.80
2023-01-31T07:53:28.777Z,8.89
2023-01-31T07:54:28.763Z,7.69
2023-01-31T07:55:28.765Z,8.39
2023-01-31T07:56:28.860Z,7.80
2023-01-31T07:57:34.767Z,10.00
2023-01-31T07:58:28.724Z,10.69
2023-01-31T07:59:29.753Z,7.19
2023-01-31T08:00:28.707Z,9.00
2023-01-31T08:01:28.752Z,10.60
2023-01-31T08:02:28.697Z,9.80
2023-01-31T08:03:28.709Z,6.80
2023-01-31T08:04:28.658Z,8.80
2023-01-31T08:05:28.659Z,10.00
2023-01-31T08:06:28.652Z,9.80
2023-01-31T08:07:28.650Z,9.00
2023-01-31T08:08:28.623Z,7.90
2023-01-31T08:09:28.620Z,9.50
2023-01-31T08:10:28.611Z,11.30
2023-01-31T08:11:28.592Z,9.19
2023-01-31T08:12:28.578Z,9.60
2023-01-31T08:13:28.613Z,9.50
2023-01-31T08:14:28.576Z,10.69
2023-01-31T08:15:28.548Z,10.39
2023-01-31T08:16:34.552Z,7.50
2023-01-31T08:17:29.318Z,8.80
2023-01-31T08:18:28.532Z,12.00
2023-01-31T08:19:28.534Z,9.19
2023-01-31T08:20:28.494Z,7.80
2023-01-31T08:21:28.496Z,11.10
2023-01-31T08:22:28.487Z,9.39
2023-01-31T08:23:28.467Z,7.80
2023-01-31T08:24:28.473Z,8.50
2023-01-31T08:25:28.447Z,11.00
2023-01-31T08:26:28.529Z,9.39
2023-01-31T08:27:28.427Z,7.80
2023-01-31T08:28:28.425Z,11.19
2023-01-31T08:29:28.420Z,8.39
2023-01-31T08:30:28.609Z,10.89
2023-01-31T08:31:28.771Z,11.30
2023-01-31T08:32:28.538Z,8.10
2023-01-31T08:33:28.366Z,11.10
2023-01-31T08:34:28.358Z,7.69
2023-01-31T08:35:28.371Z,10.30
2023-01-31T08:36:28.348Z,10.60
2023-01-31T08:37:28.336Z,8.89
2023-01-31T08:38:28.330Z,11.50
2023-01-31T08:39:29.141Z,9.89
2023-01-31T08:40:28.295Z,9.89
2023-01-31T08:41:28.289Z,11.00
2023-01-31T08:42:28.273Z,12.39
2023-01-31T08:43:28.266Z,8.80
2023-01-31T08:44:28.260Z,12.30
2023-01-31T08:45:28.246Z,10.69
2023-01-31T08:46:28.276Z,9.69
2023-01-31T08:47:28.220Z,10.60
2023-01-31T08:48:28.241Z,11.00
2023-01-31T08:49:28.236Z,8.10
2023-01-31T08:50:28.308Z,10.50
2023-01-31T08:51:28.211Z,11.10
2023-01-31T08:52:28.167Z,10.50
2023-01-31T08:53:28.162Z,9.39
2023-01-31T08:54:28.151Z,11.00
2023-01-31T08:55:29.198Z,10.60
2023-01-31T08:56:28.173Z,8.30
2023-01-31T08:57:28.120Z,10.69
2023-01-31T08:58:34.141Z,7.50
2023-01-31T08:59:28.101Z,9.39
2023-01-31T09:00:28.132Z,10.89
2023-01-31T09:01:28.148Z,9.89
2023-01-31T09:02:28.119Z,10.80
2023-01-31T09:03:28.065Z,11.00
2023-01-31T09:04:34.052Z,8.69
2023-01-31T09:05:34.472Z,11.50
2023-01-31T09:06:28.033Z,9.69
2023-01-31T09:07:28.044Z,12.10
2023-01-31T09:08:28.003Z,10.50
2023-01-31T09:09:34.009Z,10.89
2023-01-31T09:10:27.996Z,10.69
2023-01-31T09:11:27.975Z,12.00
2023-01-31T09:12:27.978Z,9.10
2023-01-31T09:13:27.979Z,11.80
2023-01-31T09:14:27.949Z,11.39
2023-01-31T09:15:27.950Z,10.30
2023-01-31T09:16:28.005Z,11.80
2023-01-31T09:17:27.920Z,11.50
2023-01-31T09:18:27.903Z,10.30
2023-01-31T09:19:27.918Z,12.39
2023-01-31T09:20:27.893Z,11.60
2023-01-31T09:21:33.877Z,12.00
2023-01-31T09:22:27.873Z,10.39
2023-01-31T09:23:27.894Z,11.30
2023-01-31T09:24:28.540Z,7.80
2023-01-31T09:25:43.056Z,11.60
2023-01-31T09:26:28.970Z,7.80
2023-01-31T09:27:27.806Z,11.00
2023-01-31T09:28:27.803Z,9.60
2023-01-31T09:29:27.790Z,10.50
2023-01-31T09:30:27.805Z,9.89
2023-01-31T09:31:27.801Z,10.60
2023-01-31T09:32:27.761Z,11.19
2023-01-31T09:33:27.750Z,10.39
2023-01-31T09:34:27.733Z,15.00
2023-01-31T09:35:27.734Z,9.10
2023-01-31T09:36:34.373Z,12.50
2023-01-31T09:37:28.085Z,11.89
2023-01-31T09:38:27.693Z,11.69
2023-01-31T09:39:34.316Z,12.69
2023-01-31T09:40:27.680Z,7.90
2023-01-31T09:41:33.695Z,13.19
2023-01-31T09:42:27.653Z,10.30
2023-01-31T09:43:29.866Z,10.60
2023-01-31T09:44:27.642Z,10.00
2023-01-31T09:45:27.616Z,8.50
2023-01-31T09:46:27.690Z,11.19
2023-01-31T09:47:27.600Z,11.19
2023-01-31T09:48:27.587Z,8.10
2023-01-31T09:49:27.574Z,11.19
2023-01-31T09:50:27.571Z,9.80
2023-01-31T09:51:27.563Z,10.69
2023-01-31T09:52:27.545Z,10.80
2023-01-31T09:53:27.548Z,7.80
2023-01-31T09:54:27.529Z,10.50
2023-01-31T09:55:27.544Z,10.60
2023-01-31T09:56:27.501Z,10.00
2023-01-31T09:57:27.496Z,10.19
2023-01-31T09:58:27.482Z,9.19
2023-01-31T09:59:27.481Z,8.50
2023-01-31T10:00:27.479Z,8.89
2023-01-31T10:01:27.451Z,7.19
2023-01-31T10:02:33.453Z,8.80
2023-01-31T10:03:27.466Z,9.60
2023-01-31T10:04:27.419Z,9.10
2023-01-31T10:05:27.412Z,10.19
2023-01-31T10:06:27.414Z,10.10
2023-01-31T10:07:27.397Z,10.19
2023-01-31T10:08:27.488Z,9.50
2023-01-31T10:09:27.384Z,9.69
2023-01-31T10:10:27.364Z,10.80
2023-01-31T10:11:27.376Z,11.69
2023-01-31T10:12:27.335Z,7.69
2023-01-31T10:13:27.323Z,10.19
2023-01-31T10:14:27.327Z,9.19
2023-01-31T10:15:27.330Z,8.80
2023-01-31T10:16:27.293Z,7.80
2023-01-31T10:17:27.318Z,8.60
2023-01-31T10:18:27.282Z,8.19
2023-01-31T10:19:27.272Z,8.39
2023-01-31T10:20:33.267Z,7.90
2023-01-31T10:21:33.360Z,7.30
2023-01-31T10:22:27.247Z,8.50
2023-01-31T10:23:33.237Z,7.90
2023-01-31T10:24:27.227Z,8.50
2023-01-31T10:25:27.223Z,8.60
2023-01-31T10:26:27.274Z,8.60
2023-01-31T10:27:33.239Z,6.30
2023-01-31T10:28:27.176Z,7.30
2023-01-31T10:29:27.168Z,7.80
2023-01-31T10:30:33.210Z,8.50
2023-01-31T10:31:33.219Z,7.59
2023-01-31T10:32:27.131Z,8.10
2023-01-31T10:33:27.121Z,8.30
2023-01-31T10:34:27.102Z,7.09
2023-01-31T10:35:27.107Z,7.69
2023-01-31T10:36:27.088Z,7.19
2023-01-31T10:37:27.083Z,7.00
2023-01-31T10:38:27.071Z,7.50
2023-01-31T10:39:27.069Z,7.50
2023-01-31T10:40:27.053Z,7.40
2023-01-31T10:41:27.037Z,8.50
2023-01-31T10:42:27.037Z,6.90
2023-01-31T10:43:27.665Z,7.80
2023-01-31T10:44:27.022Z,7.50
2023-01-31T10:45:26.997Z,8.19
2023-01-31T10:46:26.993Z,7.09
2023-01-31T10:47:26.974Z,6.90
2023-01-31T10:48:26.964Z,7.30
2023-01-31T10:49:33.157Z,6.69
2023-01-31T10:50:26.945Z,7.50
2023-01-31T10:51:27.128Z,6.50
2023-01-31T10:52:26.925Z,6.50
2023-01-31T10:53:26.925Z,7.00
2023-01-31T10:54:27.300Z,7.40
2023-01-31T10:55:26.888Z,7.90
2023-01-31T10:56:26.876Z,8.00
2023-01-31T10:57:27.169Z,7.30
2023-01-31T10:58:26.854Z,7.09
2023-01-31T10:59:26.866Z,7.50
2023-01-31T11:00:26.832Z,7.09
2023-01-31T11:01:26.964Z,6.50
2023-01-31T11:02:26.850Z,6.90
2023-01-31T11:03:26.810Z,7.19
2023-01-31T11:04:26.803Z,8.00
2023-01-31T11:05:26.784Z,6.90
2023-01-31T11:06:26.780Z,7.00
2023-01-31T11:07:32.786Z,6.30
2023-01-31T11:08:26.747Z,6.69
2023-01-31T11:09:26.749Z,6.00
2023-01-31T11:10:26.759Z,6.69
2023-01-31T11:11:26.723Z,6.80
2023-01-31T11:12:26.717Z,6.69
2023-01-31T11:13:26.699Z,7.40
2023-01-31T11:14:26.684Z,6.50
2023-01-31T11:15:26.722Z,6.19
2023-01-31T11:16:26.707Z,7.00
2023-01-31T11:17:32.664Z,6.09
2023-01-31T11:18:32.671Z,7.09
2023-01-31T11:19:26.636Z,7.40
2023-01-31T11:20:26.639Z,7.30
2023-01-31T11:21:26.620Z,7.19
2023-01-31T11:22:26.610Z,7.50
2023-01-31T11:23:26.600Z,7.09
2023-01-31T11:24:26.599Z,7.80
2023-01-31T11:25:26.608Z,8.80
2023-01-31T11:26:26.604Z,7.59
2023-01-31T11:27:26.552Z,7.69
2023-01-31T11:28:26.551Z,7.69
2023-01-31T11:29:26.529Z,6.90
2023-01-31T11:30:26.597Z,7.40
2023-01-31T11:31:26.607Z,7.30
2023-01-31T11:32:26.510Z,6.69
2023-01-31T11:33:26.496Z,6.40
2023-01-31T11:34:26.486Z,6.19
2023-01-31T11:35:26.479Z,6.69
2023-01-31T11:36:26.459Z,6.90
2023-01-31T11:37:34.371Z,7.50
2023-01-31T11:38:26.448Z,6.80
2023-01-31T11:39:26.450Z,6.30
2023-01-31T11:40:26.432Z,6.50
2023-01-31T11:41:26.503Z,6.30
2023-01-31T11:42:26.390Z,6.09
2023-01-31T11:43:26.391Z,6.59
2023-01-31T11:44:26.369Z,5.59
2023-01-31T11:45:26.367Z,5.59
2023-01-31T11:46:26.421Z,6.09
2023-01-31T11:47:26.365Z,5.69
2023-01-31T11:48:26.333Z,6.00
2023-01-31T11:49:26.327Z,5.69
2023-01-31T11:50:28.221Z,6.09
2023-01-31T11:51:26.298Z,6.30
2023-01-31T11:52:26.289Z,5.59
2023-01-31T11:53:26.486Z,6.69
2023-01-31T11:54:26.268Z,6.90
2023-01-31T11:55:26.267Z,5.59
2023-01-31T11:56:26.266Z,6.00
2023-01-31T11:57:26.435Z,6.00
2023-01-31T11:58:26.225Z,6.50
2023-01-31T11:59:26.223Z,6.30
2023-01-31T12:00:26.540Z,6.50
2023-01-31T12:01:26.213Z,6.69
2023-01-31T12:02:32.270Z,5.40
2023-01-31T12:03:26.243Z,6.69
2023-01-31T12:04:26.213Z,7.40
2023-01-31T12:05:26.151Z,6.80
2023-01-31T12:06:26.150Z,6.00
2023-01-31T12:07:26.140Z,5.59
2023-01-31T12:08:27.873Z,7.30
2023-01-31T12:09:32.126Z,6.09
2023-01-31T12:10:26.099Z,6.09
2023-01-31T12:11:32.111Z,7.09
2023-01-31T12:12:26.080Z,6.09
2023-01-31T12:13:26.087Z,7.69
2023-01-31T12:14:26.056Z,7.50
2023-01-31T12:15:26.059Z,8.00
2023-01-31T12:16:26.076Z,5.30
2023-01-31T12:17:26.023Z,5.90
2023-01-31T12:18:32.066Z,5.19
2023-01-31T12:19:26.216Z,6.30
2023-01-31T12:20:28.620Z,5.69
2023-01-31T12:21:25.982Z,5.90
2023-01-31T12:22:25.985Z,5.59
2023-01-31T12:23:25.980Z,5.50
2023-01-31T12:24:25.951Z,5.59
2023-01-31T12:25:25.969Z,6.90
2023-01-31T12:26:25.957Z,5.69
2023-01-31T12:27:26.123Z,6.50
2023-01-31T12:28:26.109Z,6.50
2023-01-31T12:29:25.907Z,6.19
2023-01-31T12:30:25.966Z,6.69
2023-01-31T12:31:25.933Z,6.40
2023-01-31T12:32:25.875Z,6.00
2023-01-31T12:33:25.865Z,6.50
2023-01-31T12:34:25.880Z,6.00
2023-01-31T12:35:26.300Z,6.19
2023-01-31T12:36:25.826Z,5.09
2023-01-31T12:37:25.827Z,5.50
2023-01-31T12:38:25.803Z,5.19
2023-01-31T12:39:25.787Z,5.50
2023-01-31T12:40:26.928Z,6.00
2023-01-31T12:41:25.769Z,5.50
2023-01-31T12:42:25.767Z,5.09
2023-01-31T12:43:25.756Z,6.19
2023-01-31T12:44:25.965Z,5.00
2023-01-31T12:45:25.730Z,5.69
2023-01-31T12:46:25.782Z,4.90
2023-01-31T12:47:25.928Z,5.09
2023-01-31T12:48:25.708Z,5.00
2023-01-31T12:49:25.698Z,5.50
2023-01-31T12:50:31.709Z,4.90
2023-01-31T12:51:25.683Z,5.00
2023-01-31T12:52:25.880Z,5.00
2023-01-31T12:53:25.643Z,4.69
2023-01-31T12:54:25.638Z,4.59
2023-01-31T12:55:25.624Z,4.69
2023-01-31T12:56:25.617Z,5.09
2023-01-31T12:57:25.601Z,4.69
2023-01-31T12:58:25.601Z,5.40
2023-01-31T12:59:25.590Z,5.09
2023-01-31T13:00:25.606Z,4.30
2023-01-31T13:01:25.626Z,5.19
2023-01-31T13:02:25.579Z,4.59
2023-01-31T13:03:25.544Z,5.40
2023-01-31T13:04:25.525Z,4.69
2023-01-31T13:05:28.208Z,5.40
2023-01-31T13:06:25.585Z,5.09
2023-01-31T13:07:25.504Z,5.59
2023-01-31T13:08:25.494Z,5.00
2023-01-31T13:09:25.692Z,5.09
2023-01-31T13:10:25.486Z,4.80
2023-01-31T13:11:25.468Z,5.00
2023-01-31T13:12:25.448Z,5.19
2023-01-31T13:13:25.528Z,4.50
2023-01-31T13:14:25.425Z,4.59
2023-01-31T13:15:25.423Z,5.30
2023-01-31T13:16:25.413Z,5.09
2023-01-31T13:17:25.392Z,5.00
2023-01-31T13:18:25.382Z,4.50
2023-01-31T13:19:25.371Z,5.09
2023-01-31T13:20:25.401Z,4.90
2023-01-31T13:21:25.350Z,5.30
2023-01-31T13:22:25.380Z,5.00
2023-01-31T13:23:25.353Z,4.19
2023-01-31T13:24:25.324Z,4.69
2023-01-31T13:25:25.312Z,4.59
2023-01-31T13:26:25.336Z,4.50
2023-01-31T13:27:25.289Z,4.80
2023-01-31T13:28:25.278Z,4.59
2023-01-31T13:29:25.266Z,4.50
2023-01-31T13:30:25.254Z,4.50
2023-01-31T13:31:25.338Z,4.69
2023-01-31T13:32:25.236Z,4.50
2023-01-31T13:33:25.237Z,4.59
2023-01-31T13:34:25.208Z,4.50
2023-01-31T13:35:25.208Z,4.69
2023-01-31T13:36:25.196Z,4.30
2023-01-31T13:37:25.191Z,4.30
2023-01-31T13:38:31.296Z,3.70
2023-01-31T13:39:25.173Z,4.09
2023-01-31T13:40:25.177Z,4.80
2023-01-31T13:41:31.167Z,3.70
2023-01-31T13:42:31.148Z,4.59
2023-01-31T13:43:25.115Z,3.70
2023-01-31T13:44:25.105Z,3.79
2023-01-31T13:45:25.103Z,4.00
2023-01-31T13:46:25.335Z,3.90
2023-01-31T13:47:25.090Z,3.90
2023-01-31T13:48:25.065Z,4.40
2023-01-31T13:49:25.075Z,4.40
2023-01-31T13:50:25.053Z,4.69
2023-01-31T13:51:25.045Z,4.00
2023-01-31T13:52:25.035Z,4.19
2023-01-31T13:53:25.219Z,4.09
2023-01-31T13:54:25.022Z,3.79
2023-01-31T13:55:25.002Z,3.90
2023-01-31T13:56:25.034Z,3.90
2023-01-31T13:57:24.977Z,3.59
2023-01-31T13:58:24.975Z,3.70
2023-01-31T13:59:24.960Z,3.70
2023-01-31T14:00:24.959Z,4.30
2023-01-31T14:01:25.069Z,3.90
2023-01-31T14:02:24.935Z,4.50
2023-01-31T14:03:24.901Z,4.09
2023-01-31T14:04:30.908Z,3.70
2023-01-31T14:05:24.903Z,4.30
2023-01-31T14:06:24.887Z,3.90
2023-01-31T14:07:24.878Z,4.19
2023-01-31T14:08:24.863Z,3.90
2023-01-31T14:09:24.863Z,3.90
2023-01-31T14:10:24.859Z,4.19
2023-01-31T14:11:24.824Z,4.09
2023-01-31T14:12:24.818Z,4.00
2023-01-31T14:13:24.808Z,4.09
2023-01-31T14:14:24.787Z,3.40
2023-01-31T14:15:24.788Z,3.90
2023-01-31T14:16:24.816Z,4.50
2023-01-31T14:17:24.959Z,4.09
2023-01-31T14:18:24.766Z,3.79
2023-01-31T14:19:24.738Z,4.50
2023-01-31T14:20:24.732Z,4.90
2023-01-31T14:21:24.712Z,5.19
2023-01-31T14:22:33.068Z,6.00
2023-01-31T14:23:24.703Z,5.59
2023-01-31T14:24:24.785Z,5.59
2023-01-31T14:25:24.886Z,5.30
2023-01-31T14:26:24.784Z,7.09
2023-01-31T14:27:24.652Z,5.90
2023-01-31T14:28:26.518Z,4.40
2023-01-31T14:29:24.830Z,3.90
2023-01-31T14:30:24.634Z,4.00
2023-01-31T14:31:24.667Z,3.90
2023-01-31T14:32:24.603Z,3.59
2023-01-31T14:33:24.617Z,3.70
2023-01-31T14:34:24.577Z,3.59
2023-01-31T14:35:24.564Z,4.69
2023-01-31T14:36:24.571Z,4.09
2023-01-31T14:37:24.555Z,2.90
2023-01-31T14:38:24.541Z,3.40
2023-01-31T14:39:24.531Z,3.50
2023-01-31T14:40:24.516Z,3.90
2023-01-31T14:41:26.591Z,4.09
2023-01-31T14:42:24.513Z,3.70
2023-01-31T14:43:24.495Z,4.30
2023-01-31T14:44:24.474Z,4.30
2023-01-31T14:45:24.475Z,3.59
2023-01-31T14:46:24.467Z,3.79
2023-01-31T14:47:26.150Z,4.30
2023-01-31T14:48:24.873Z,3.50
2023-01-31T14:49:24.433Z,3.90
2023-01-31T14:50:24.456Z,3.59
2023-01-31T14:51:24.433Z,4.30
2023-01-31T14:52:24.396Z,4.30
2023-01-31T14:53:24.406Z,3.50
2023-01-31T14:54:24.373Z,3.50
2023-01-31T14:55:24.359Z,3.50
2023-01-31T14:56:24.400Z,3.79
2023-01-31T14:57:24.392Z,4.40
2023-01-31T14:58:30.375Z,3.79
2023-01-31T14:59:24.319Z,4.00
2023-01-31T15:00:24.310Z,4.00
2023-01-31T15:01:24.425Z,3.50
2023-01-31T15:02:24.482Z,3.79
2023-01-31T15:03:24.408Z,3.40
2023-01-31T15:04:24.269Z,4.80
2023-01-31T15:05:30.265Z,4.09
2023-01-31T15:06:24.250Z,3.90
2023-01-31T15:07:24.443Z,4.69
2023-01-31T15:08:24.219Z,3.79
2023-01-31T15:09:24.224Z,4.69
2023-01-31T15:10:24.208Z,4.00
2023-01-31T15:11:40.172Z,3.40
2023-01-31T15:12:25.423Z,4.00
2023-01-31T15:13:24.205Z,4.19
2023-01-31T15:14:33.904Z,4.40
2023-01-31T15:15:25.187Z,4.40
2023-01-31T15:16:24.401Z,3.90
2023-01-31T15:18:10.871Z,3.79
2023-01-31T15:19:11.046Z,4.09
2023-01-31T15:20:10.844Z,4.50
2023-01-31T15:21:10.814Z,5.19
2023-01-31T15:22:10.805Z,4.40
2023-01-31T15:23:10.794Z,4.40
2023-01-31T15:24:10.789Z,3.70
2023-01-31T15:25:10.771Z,3.90
2023-01-31T15:26:10.794Z,5.00
2023-01-31T15:27:10.758Z,4.80
2023-01-31T15:28:10.742Z,3.90
2023-01-31T15:29:10.789Z,4.59
2023-01-31T15:30:10.725Z,4.80
2023-01-31T15:31:12.437Z,4.50
2023-01-31T15:32:10.713Z,4.90
2023-01-31T15:33:10.685Z,4.80
2023-01-31T15:34:10.704Z,4.00
2023-01-31T15:35:10.681Z,4.09
2023-01-31T15:36:10.658Z,4.09
2023-01-31T15:37:10.652Z,4.40
2023-01-31T15:38:16.663Z,4.00
2023-01-31T15:39:10.634Z,4.00
2023-01-31T15:40:12.891Z,4.30
2023-01-31T15:41:10.615Z,4.09
2023-01-31T15:42:10.619Z,3.90
2023-01-31T15:43:10.585Z,4.59
2023-01-31T15:44:10.603Z,4.19
2023-01-31T15:45:10.620Z,3.50
2023-01-31T15:46:10.587Z,4.90
2023-01-31T15:47:10.546Z,4.40
2023-01-31T15:48:16.552Z,5.59
2023-01-31T15:49:10.527Z,3.70
2023-01-31T15:50:10.525Z,4.00
2023-01-31T15:51:10.511Z,3.70
2023-01-31T15:52:10.604Z,4.09
2023-01-31T15:53:10.499Z,4.30
2023-01-31T15:54:10.490Z,4.19
2023-01-31T15:55:10.482Z,4.59
2023-01-31T15:56:10.447Z,3.09
2023-01-31T15:57:10.466Z,4.19
2023-01-31T15:58:16.650Z,4.09
2023-01-31T15:59:10.444Z,3.70
2023-01-31T16:00:10.529Z,4.00
2023-01-31T16:01:10.719Z,3.20
2023-01-31T16:02:10.429Z,2.70
2023-01-31T16:03:10.395Z,3.59
2023-01-31T16:04:10.397Z,5.50
2023-01-31T16:05:10.368Z,2.70
2023-01-31T16:06:10.357Z,3.50
2023-01-31T16:07:10.357Z,3.40
2023-01-31T16:08:16.356Z,3.09
2023-01-31T16:09:10.329Z,3.50
2023-01-31T16:10:10.417Z,3.20
2023-01-31T16:11:10.307Z,2.40
2023-01-31T16:12:10.293Z,3.09
2023-01-31T16:13:10.287Z,3.00
2023-01-31T16:14:10.275Z,4.19
2023-01-31T16:15:10.360Z,2.90
2023-01-31T16:16:10.252Z,2.09
2023-01-31T16:17:10.270Z,2.70
2023-01-31T16:18:10.233Z,3.29
2023-01-31T16:19:10.225Z,3.00
2023-01-31T16:20:10.226Z,2.90
2023-01-31T16:21:10.207Z,2.29
2023-01-31T16:22:10.196Z,3.00
2023-01-31T16:23:10.203Z,3.59
2023-01-31T16:24:10.169Z,2.70
2023-01-31T16:25:10.153Z,2.59
2023-01-31T16:26:10.148Z,2.59
2023-01-31T16:27:10.140Z,3.79
2023-01-31T16:28:10.135Z,2.09
2023-01-31T16:29:10.123Z,2.79
2023-01-31T16:30:10.128Z,3.20
2023-01-31T16:31:10.307Z,2.90
2023-01-31T16:32:10.110Z,2.00
2023-01-31T16:33:10.102Z,2.50
2023-01-31T16:34:16.072Z,3.00
2023-01-31T16:35:10.058Z,2.70
2023-01-31T16:36:13.926Z,2.40
2023-01-31T16:37:10.081Z,2.59
2023-01-31T16:38:10.123Z,2.50
2023-01-31T16:39:10.016Z,3.09
2023-01-31T16:40:16.015Z,3.20
2023-01-31T16:41:09.989Z,2.70
2023-01-31T16:42:10.012Z,2.79
2023-01-31T16:43:09.967Z,2.50
2023-01-31T16:44:09.964Z,2.09
2023-01-31T16:45:09.957Z,2.59
2023-01-31T16:46:10.183Z,2.70
2023-01-31T16:47:09.933Z,2.50
2023-01-31T16:48:09.924Z,3.00
2023-01-31T16:49:09.944Z,3.00
2023-01-31T16:50:09.904Z,2.79
2023-01-31T16:51:09.902Z,2.50
2023-01-31T16:52:09.892Z,1.90
2023-01-31T16:53:09.881Z,2.29
2023-01-31T16:54:09.947Z,2.50
2023-01-31T16:55:10.133Z,3.09
2023-01-31T16:56:09.899Z,1.79
2023-01-31T16:57:09.886Z,2.59
2023-01-31T16:58:09.886Z,2.50
2023-01-31T16:59:09.862Z,4.09
2023-01-31T17:00:09.865Z,2.79
2023-01-31T17:01:15.919Z,2.59
2023-01-31T17:02:09.828Z,3.20
2023-01-31T17:03:09.822Z,4.00
2023-01-31T17:04:09.813Z,2.29
2023-01-31T17:05:10.037Z,3.29
2023-01-31T17:06:09.792Z,2.70
2023-01-31T17:07:15.784Z,3.79
2023-01-31T17:08:09.768Z,3.40
2023-01-31T17:09:09.768Z,2.40
2023-01-31T17:10:09.753Z,2.90
2023-01-31T17:11:23.588Z,2.70
2023-01-31T17:12:10.778Z,3.20
2023-01-31T17:13:09.733Z,2.90
2023-01-31T17:14:15.718Z,2.70
2023-01-31T17:15:09.741Z,4.59
2023-01-31T17:16:15.761Z,3.09
2023-01-31T17:17:16.223Z,2.79
2023-01-31T17:18:10.718Z,2.20
2023-01-31T17:19:09.667Z,3.50
2023-01-31T17:20:09.875Z,2.90
2023-01-31T17:21:09.660Z,3.79
2023-01-31T17:22:09.628Z,4.59
2023-01-31T17:23:09.621Z,4.30
2023-01-31T17:24:09.610Z,3.79
2023-01-31T17:25:09.820Z,2.79
2023-01-31T17:26:09.595Z,3.59
2023-01-31T17:27:09.592Z,2.90
2023-01-31T17:28:09.588Z,3.00
2023-01-31T17:29:09.559Z,2.79
2023-01-31T17:30:09.541Z,4.30
2023-01-31T17:31:09.644Z,2.90
2023-01-31T17:32:09.539Z,2.70
2023-01-31T17:33:09.736Z,3.29
2023-01-31T17:34:09.526Z,3.29
2023-01-31T17:35:09.497Z,4.19
2023-01-31T17:36:09.495Z,3.29
2023-01-31T17:37:09.507Z,3.79
2023-01-31T17:38:09.472Z,3.20
2023-01-31T17:39:09.457Z,4.19
2023-01-31T17:40:09.484Z,6.80
2023-01-31T17:41:09.646Z,3.50
2023-01-31T17:42:09.434Z,4.19
2023-01-31T17:43:09.416Z,4.19
2023-01-31T17:44:09.418Z,4.90
2023-01-31T17:45:09.405Z,4.50
2023-01-31T17:46:09.397Z,4.00
2023-01-31T17:47:09.393Z,4.19
2023-01-31T17:48:11.757Z,5.59
2023-01-31T17:49:15.377Z,6.00
2023-01-31T17:50:09.424Z,4.69
2023-01-31T17:51:09.352Z,4.40
2023-01-31T17:52:09.321Z,5.09
2023-01-31T17:53:09.346Z,4.90
2023-01-31T17:54:09.314Z,5.40
2023-01-31T17:55:09.513Z,5.90
2023-01-31T17:56:09.287Z,5.00
2023-01-31T17:57:09.473Z,6.30
2023-01-31T17:58:09.257Z,6.40
2023-01-31T17:59:18.241Z,7.00
2023-01-31T18:00:10.291Z,6.69
2023-01-31T18:01:09.237Z,5.19
2023-01-31T18:02:09.236Z,3.79
2023-01-31T18:03:09.293Z,4.30
2023-01-31T18:04:09.201Z,4.19
2023-01-31T18:05:09.430Z,4.09
2023-01-31T18:06:09.202Z,3.20
2023-01-31T18:07:09.199Z,4.00
2023-01-31T18:08:09.163Z,3.29
2023-01-31T18:09:09.178Z,3.79
2023-01-31T18:10:09.149Z,3.59
2023-01-31T18:11:09.130Z,4.80
2023-01-31T18:12:09.136Z,4.00
2023-01-31T18:13:09.110Z,3.59
2023-01-31T18:14:09.104Z,3.50
2023-01-31T18:15:09.121Z,3.40
2023-01-31T18:16:15.189Z,3.59
2023-01-31T18:17:09.078Z,3.70
2023-01-31T18:18:09.072Z,3.09
2023-01-31T18:19:09.070Z,3.09
2023-01-31T18:20:09.053Z,3.00
2023-01-31T18:21:09.032Z,2.90
2023-01-31T18:22:09.021Z,3.00
2023-01-31T18:23:09.033Z,4.09
2023-01-31T18:24:09.110Z,2.70
2023-01-31T18:25:09.003Z,3.40
2023-01-31T18:26:08.987Z,4.59
2023-01-31T18:27:08.965Z,4.40
2023-01-31T18:28:08.960Z,4.50
2023-01-31T18:29:08.956Z,4.40
2023-01-31T18:30:08.937Z,3.70
2023-01-31T18:31:09.222Z,4.69
2023-01-31T18:32:08.934Z,4.19
2023-01-31T18:33:08.907Z,5.19
2023-01-31T18:34:08.895Z,4.40
2023-01-31T18:35:08.884Z,4.09
2023-01-31T18:36:08.878Z,4.00
2023-01-31T18:37:08.873Z,4.09
2023-01-31T18:38:08.854Z,5.59
2023-01-31T18:39:08.950Z,4.59
2023-01-31T18:40:08.850Z,4.69
2023-01-31T18:41:08.906Z,3.90
2023-01-31T18:42:08.826Z,3.29
2023-01-31T18:43:08.799Z,4.09
2023-01-31T18:44:08.802Z,4.19
2023-01-31T18:45:08.984Z,3.20
2023-01-31T18:46:08.772Z,5.00
2023-01-31T18:47:08.793Z,3.00
2023-01-31T18:48:47.524Z,2.90
2023-01-31T18:49:47.496Z,3.00
2023-01-31T18:50:47.705Z,3.20
2023-01-31T18:51:47.493Z,3.70
2023-01-31T18:52:47.469Z,4.19
2023-01-31T18:53:47.456Z,3.00
2023-01-31T18:54:47.452Z,3.20
2023-01-31T18:55:47.438Z,3.50
2023-01-31T18:56:47.660Z,3.09
2023-01-31T18:57:53.629Z,3.29
2023-01-31T18:58:47.404Z,2.59
2023-01-31T18:59:47.405Z,3.29
2023-01-31T19:00:47.400Z,3.59
2023-01-31T19:01:47.376Z,4.19
2023-01-31T19:02:47.364Z,2.90
2023-01-31T19:03:47.358Z,3.40
2023-01-31T19:04:47.352Z,3.90
2023-01-31T19:05:47.332Z,4.59
2023-01-31T19:06:47.318Z,2.79
2023-01-31T19:07:47.422Z,4.19
2023-01-31T19:08:47.311Z,5.30
2023-01-31T19:09:47.291Z,3.70
2023-01-31T19:10:47.294Z,2.90
2023-01-31T19:11:47.478Z,3.00
2023-01-31T19:12:47.278Z,3.70
2023-01-31T19:13:47.265Z,3.20
2023-01-31T19:14:48.356Z,2.29
2023-01-31T19:15:47.221Z,2.70
2023-01-31T19:16:47.232Z,3.20
2023-01-31T19:17:53.220Z,2.70
2023-01-31T19:18:53.211Z,3.00
2023-01-31T19:19:47.189Z,3.59
2023-01-31T19:20:47.197Z,2.59
2023-01-31T19:21:47.158Z,3.70
2023-01-31T19:22:47.365Z,3.00
2023-01-31T19:23:47.345Z,2.79
2023-01-31T19:24:47.136Z,2.20
2023-01-31T19:25:47.124Z,2.79
2023-01-31T19:26:47.154Z,2.70
2023-01-31T19:27:47.104Z,3.70
2023-01-31T19:28:47.119Z,3.20
2023-01-31T19:29:47.294Z,2.59
2023-01-31T19:30:47.104Z,3.00
2023-01-31T19:31:47.097Z,3.00
2023-01-31T19:32:47.044Z,3.00
2023-01-31T19:33:47.039Z,3.00
2023-01-31T19:34:47.022Z,3.29
2023-01-31T19:35:47.222Z,2.50